createdAt,value
2023-02-26T00:00:03.253Z,-1.00
2023-02-26T00:01:03.224Z,-1.00
2023-02-26T00:02:03.235Z,-1.00
2023-02-26T00:03:03.233Z,-1.00
2023-02-26T00:04:03.167Z,-1.00
2023-02-26T00:05:03.140Z,-1.00
2023-02-26T00:06:03.174Z,-1.00
2023-02-26T00:07:03.169Z,-1.00
2023-02-26T00:08:03.181Z,-1.00
2023-02-26T00:09:03.228Z,-1.00
2023-02-26T00:10:03.269Z,-1.00
2023-02-26T00:11:03.200Z,-1.00
2023-02-26T00:12:03.130Z,-1.00
2023-02-26T00:13:03.118Z,-1.00
2023-02-26T00:14:03.144Z,-1.00
2023-02-26T00:15:03.103Z,-1.00
2023-02-26T00:16:03.051Z,-1.00
2023-02-26T00:17:03.403Z,-1.00
2023-02-26T00:18:03.300Z,-1.00
2023-02-26T00:19:03.203Z,-1.00
2023-02-26T00:20:03.271Z,-1.00
2023-02-26T00:21:03.199Z,-1.00
2023-02-26T00:22:03.260Z,-1.00
2023-02-26T00:23:03.256Z,-1.00
2023-02-26T00:24:03.200Z,-1.00
2023-02-26T00:25:03.207Z,-1.00
2023-02-26T00:26:03.237Z,-1.00
2023-02-26T00:27:03.247Z,-1.00
2023-02-26T00:28:03.230Z,-1.00
2023-02-26T00:29:03.205Z,-1.00
2023-02-26T00:30:03.218Z,-1.10
2023-02-26T00:31:03.196Z,-1.00
2023-02-26T00:32:03.438Z,-1.00
2023-02-26T00:33:03.220Z,-1.00
2023-02-26T00:34:03.129Z,-1.10
2023-02-26T00:35:03.104Z,-1.00
2023-02-26T00:36:03.123Z,-1.10
2023-02-26T00:37:03.089Z,-1.10
2023-02-26T00:38:03.095Z,-1.00
2023-02-26T00:39:02.975Z,-1.00
2023-02-26T00:40:02.947Z,-1.00
2023-02-26T00:41:03.282Z,-1.00
2023-02-26T00:42:03.044Z,-1.00
2023-02-26T00:43:03.052Z,-1.00
2023-02-26T00:44:03.096Z,-1.00
2023-02-26T00:45:03.076Z,-1.00
2023-02-26T00:46:03.211Z,-1.00
2023-02-26T00:47:03.092Z,-1.00
2023-02-26T00:48:03.125Z,-1.00
2023-02-26T00:49:03.128Z,-1.00
2023-02-26T00:50:03.169Z,-1.00
2023-02-26T00:51:03.060Z,-1.00
2023-02-26T00:52:03.083Z,-1.00
2023-02-26T00:53:03.084Z,-1.00
2023-02-26T00:54:03.131Z,-1.00
2023-02-26T00:55:03.290Z,-1.00
2023-02-26T00:56:03.178Z,-1.00
2023-02-26T00:57:03.231Z,-1.00
2023-02-26T00:58:03.198Z,-1.00
2023-02-26T00:59:03.267Z,-1.00
2023-02-26T01:00:03.168Z,-1.00
2023-02-26T01:01:03.553Z,-1.00
2023-02-26T01:02:03.487Z,-1.00
2023-02-26T01:03:03.589Z,-1.00
2023-02-26T01:04:03.532Z,-1.00
2023-02-26T01:05:03.469Z,-1.00
2023-02-26T01:06:03.547Z,-1.00
2023-02-26T01:07:03.564Z,-1.00
2023-02-26T01:08:03.503Z,-1.00
2023-02-26T01:09:03.496Z,-1.00
2023-02-26T01:10:03.555Z,-1.00
2023-02-26T01:11:02.857Z,-1.00
2023-02-26T01:12:02.966Z,-1.00
2023-02-26T01:13:02.975Z,-1.10
2023-02-26T01:14:02.894Z,-1.10
2023-02-26T01:15:02.910Z,-1.10
2023-02-26T01:16:02.884Z,-1.10
2023-02-26T01:17:03.021Z,-1.10
2023-02-26T01:18:02.914Z,-1.10
2023-02-26T01:19:02.925Z,-1.10
2023-02-26T01:20:02.992Z,-1.10
2023-02-26T01:21:03.095Z,-1.10
2023-02-26T01:22:03.104Z,-1.10
2023-02-26T01:23:03.038Z,-1.10
2023-02-26T01:24:03.104Z,-1.10
2023-02-26T01:25:03.204Z,-1.10
2023-02-26T01:26:03.153Z,-1.20
2023-02-26T01:27:03.147Z,-1.10
2023-02-26T01:28:03.095Z,-1.10
2023-02-26T01:29:03.196Z,-1.10
2023-02-26T01:30:03.192Z,-1.20
2023-02-26T01:31:03.413Z,-1.10
2023-02-26T01:32:03.329Z,-1.20
2023-02-26T01:33:03.206Z,-1.20
2023-02-26T01:34:03.317Z,-1.20
2023-02-26T01:35:03.319Z,-1.20
2023-02-26T01:36:03.420Z,-1.20
2023-02-26T01:37:03.495Z,-1.20
2023-02-26T01:38:03.526Z,-1.20
2023-02-26T01:39:02.744Z,-1.20
2023-02-26T01:40:02.720Z,-1.20
2023-02-26T01:41:02.677Z,-1.20
2023-02-26T01:42:02.696Z,-1.20
2023-02-26T01:43:03.569Z,-1.20
2023-02-26T01:44:02.636Z,-1.20
2023-02-26T01:45:02.718Z,-1.20
2023-02-26T01:46:02.888Z,-1.20
2023-02-26T01:47:02.814Z,-1.20
2023-02-26T01:48:02.721Z,-1.20
2023-02-26T01:49:02.753Z,-1.20
2023-02-26T01:50:02.704Z,-1.20
2023-02-26T01:51:02.787Z,-1.20
2023-02-26T01:52:02.771Z,-1.20
2023-02-26T01:53:02.676Z,-1.20
2023-02-26T01:54:02.718Z,-1.20
2023-02-26T01:55:02.769Z,-1.20
2023-02-26T01:56:02.872Z,-1.20
2023-02-26T01:57:03.017Z,-1.20
2023-02-26T01:58:03.512Z,-1.20
2023-02-26T01:59:03.496Z,-1.20
2023-02-26T02:00:03.483Z,-1.20
2023-02-26T02:01:03.515Z,-1.20
2023-02-26T02:02:03.424Z,-1.20
2023-02-26T02:03:03.473Z,-1.20
2023-02-26T02:04:03.343Z,-1.20
2023-02-26T02:05:03.472Z,-1.30
2023-02-26T02:06:03.406Z,-1.30
2023-02-26T02:07:03.356Z,-1.30
2023-02-26T02:08:03.261Z,-1.20
2023-02-26T02:09:03.358Z,-1.30
2023-02-26T02:10:03.336Z,-1.30
2023-02-26T02:11:03.241Z,-1.20
2023-02-26T02:12:03.172Z,-1.20
2023-02-26T02:13:03.325Z,-1.30
2023-02-26T02:14:03.257Z,-1.30
2023-02-26T02:15:03.311Z,-1.30
2023-02-26T02:16:03.287Z,-1.30
2023-02-26T02:17:03.352Z,-1.30
2023-02-26T02:18:03.324Z,-1.30
2023-02-26T02:19:03.310Z,-1.30
2023-02-26T02:20:03.217Z,-1.30
2023-02-26T02:21:03.251Z,-1.30
2023-02-26T02:22:03.594Z,-1.30
2023-02-26T02:23:03.330Z,-1.30
2023-02-26T02:24:03.324Z,-1.30
2023-02-26T02:25:03.223Z,-1.30
2023-02-26T02:26:03.232Z,-1.30
2023-02-26T02:27:03.276Z,-1.30
2023-02-26T02:28:03.199Z,-1.30
2023-02-26T02:29:03.241Z,-1.30
2023-02-26T02:30:03.164Z,-1.30
2023-02-26T02:31:03.122Z,-1.30
2023-02-26T02:32:03.150Z,-1.30
2023-02-26T02:33:03.046Z,-1.30
2023-02-26T02:34:03.058Z,-1.30
2023-02-26T02:35:03.125Z,-1.30
2023-02-26T02:36:03.238Z,-1.30
2023-02-26T02:37:03.166Z,-1.30
2023-02-26T02:38:03.206Z,-1.30
2023-02-26T02:39:03.224Z,-1.30
2023-02-26T02:40:03.296Z,-1.30
2023-02-26T02:41:03.294Z,-1.30
2023-02-26T02:42:03.353Z,-1.30
2023-02-26T02:43:03.346Z,-1.30
2023-02-26T02:44:03.234Z,-1.30
2023-02-26T02:45:03.395Z,-1.30
2023-02-26T02:46:03.403Z,-1.30
2023-02-26T02:47:03.188Z,-1.30
2023-02-26T02:48:03.208Z,-1.40
2023-02-26T02:49:03.270Z,-1.40
2023-02-26T02:50:03.191Z,-1.40
2023-02-26T02:51:03.206Z,-1.40
2023-02-26T02:52:03.245Z,-1.40
2023-02-26T02:53:03.371Z,-1.40
2023-02-26T02:54:03.409Z,-1.40
2023-02-26T02:55:03.411Z,-1.40
2023-02-26T02:56:03.505Z,-1.40
2023-02-26T02:57:03.446Z,-1.40
2023-02-26T02:58:03.393Z,-1.40
2023-02-26T02:59:03.367Z,-1.40
2023-02-26T03:00:03.586Z,-1.40
2023-02-26T03:01:03.706Z,-1.40
2023-02-26T03:02:03.581Z,-1.40
2023-02-26T03:03:03.507Z,-1.40
2023-02-26T03:04:03.446Z,-1.40
2023-02-26T03:05:03.473Z,-1.40
2023-02-26T03:06:03.606Z,-1.40
2023-02-26T03:07:02.612Z,-1.40
2023-02-26T03:08:02.644Z,-1.40
2023-02-26T03:09:02.674Z,-1.40
2023-02-26T03:10:03.643Z,-1.40
2023-02-26T03:11:03.680Z,-1.40
2023-02-26T03:12:02.636Z,-1.40
2023-02-26T03:13:03.613Z,-1.40
2023-02-26T03:14:03.565Z,-1.40
2023-02-26T03:15:02.617Z,-1.40
2023-02-26T03:16:03.646Z,-1.40
2023-02-26T03:17:03.548Z,-1.40
2023-02-26T03:18:03.572Z,-1.40
2023-02-26T03:19:03.562Z,-1.40
2023-02-26T03:20:03.612Z,-1.40
2023-02-26T03:21:02.621Z,-1.40
2023-02-26T03:22:02.739Z,-1.40
2023-02-26T03:23:02.789Z,-1.40
2023-02-26T03:24:02.873Z,-1.40
2023-02-26T03:25:02.813Z,-1.40
2023-02-26T03:26:02.892Z,-1.40
2023-02-26T03:27:02.786Z,-1.40
2023-02-26T03:28:02.918Z,-1.40
2023-02-26T03:29:03.393Z,-1.40
2023-02-26T03:30:03.375Z,-1.40
2023-02-26T03:31:03.365Z,-1.50
2023-02-26T03:32:03.562Z,-1.40
2023-02-26T03:33:03.457Z,-1.50
2023-02-26T03:34:03.407Z,-1.50
2023-02-26T03:35:03.399Z,-1.40
2023-02-26T03:36:03.337Z,-1.40
2023-02-26T03:37:03.280Z,-1.40
2023-02-26T03:38:03.242Z,-1.50
2023-02-26T03:39:03.152Z,-1.50
2023-02-26T03:40:03.157Z,-1.50
2023-02-26T03:41:03.035Z,-1.50
2023-02-26T03:42:03.071Z,-1.50
2023-02-26T03:43:03.188Z,-1.50
2023-02-26T03:44:03.142Z,-1.50
2023-02-26T03:45:03.085Z,-1.50
2023-02-26T03:46:03.218Z,-1.50
2023-02-26T03:47:03.244Z,-1.50
2023-02-26T03:48:03.328Z,-1.50
2023-02-26T03:49:03.313Z,-1.50
2023-02-26T03:50:03.346Z,-1.50
2023-02-26T03:51:03.402Z,-1.50
2023-02-26T03:52:03.523Z,-1.50
2023-02-26T03:53:03.580Z,-1.50
2023-02-26T03:54:03.586Z,-1.50
2023-02-26T03:55:03.546Z,-1.50
2023-02-26T03:56:03.574Z,-1.50
2023-02-26T03:57:02.690Z,-1.50
2023-02-26T03:58:02.668Z,-1.50
2023-02-26T03:59:02.780Z,-1.50
2023-02-26T04:00:02.717Z,-1.50
2023-02-26T04:01:02.833Z,-1.50
2023-02-26T04:02:02.773Z,-1.50
2023-02-26T04:03:02.853Z,-1.50
2023-02-26T04:04:02.802Z,-1.50
2023-02-26T04:05:02.783Z,-1.50
2023-02-26T04:06:02.769Z,-1.50
2023-02-26T04:07:02.812Z,-1.50
2023-02-26T04:08:02.823Z,-1.50
2023-02-26T04:09:02.948Z,-1.50
2023-02-26T04:10:02.924Z,-1.50
2023-02-26T04:11:03.005Z,-1.50
2023-02-26T04:12:03.000Z,-1.60
2023-02-26T04:13:03.002Z,-1.60
2023-02-26T04:14:03.081Z,-1.60
2023-02-26T04:15:03.066Z,-1.60
2023-02-26T04:16:03.010Z,-1.50
2023-02-26T04:17:03.119Z,-1.50
2023-02-26T04:18:03.037Z,-1.50
2023-02-26T04:19:02.998Z,-1.60
2023-02-26T04:20:03.076Z,-1.60
2023-02-26T04:21:02.996Z,-1.60
2023-02-26T04:22:03.065Z,-1.60
2023-02-26T04:23:03.039Z,-1.60
2023-02-26T04:24:02.992Z,-1.60
2023-02-26T04:25:02.922Z,-1.60
2023-02-26T04:26:02.923Z,-1.60
2023-02-26T04:27:02.855Z,-1.60
2023-02-26T04:28:02.848Z,-1.60
2023-02-26T04:29:02.740Z,-1.50
2023-02-26T04:30:02.785Z,-1.50
2023-02-26T04:31:02.765Z,-1.60
2023-02-26T04:32:02.930Z,-1.60
2023-02-26T04:33:02.769Z,-1.50
2023-02-26T04:34:02.772Z,-1.50
2023-02-26T04:35:02.845Z,-1.50
2023-02-26T04:36:02.844Z,-1.50
2023-02-26T04:37:02.846Z,-1.50
2023-02-26T04:38:02.913Z,-1.60
2023-02-26T04:39:02.860Z,-1.50
2023-02-26T04:40:02.906Z,-1.50
2023-02-26T04:41:03.045Z,-1.50
2023-02-26T04:42:02.996Z,-1.50
2023-02-26T04:43:03.046Z,-1.50
2023-02-26T04:44:03.020Z,-1.50
2023-02-26T04:45:03.049Z,-1.50
2023-02-26T04:46:03.183Z,-1.50
2023-02-26T04:47:03.118Z,-1.50
2023-02-26T04:48:03.204Z,-1.50
2023-02-26T04:49:03.061Z,-1.50
2023-02-26T04:50:03.248Z,-1.50
2023-02-26T04:51:03.318Z,-1.50
2023-02-26T04:52:03.339Z,-1.50
2023-02-26T04:53:03.351Z,-1.50
2023-02-26T04:54:03.412Z,-1.50
2023-02-26T04:55:03.358Z,-1.60
2023-02-26T04:56:03.386Z,-1.50
2023-02-26T04:57:03.481Z,-1.50
2023-02-26T04:58:03.535Z,-1.60
2023-02-26T04:59:02.609Z,-1.50
2023-02-26T05:00:02.697Z,-1.50
2023-02-26T05:01:02.706Z,-1.50
2023-02-26T05:02:02.921Z,-1.50
2023-02-26T05:03:02.752Z,-1.60
2023-02-26T05:04:02.844Z,-1.60
2023-02-26T05:05:02.810Z,-1.60
2023-02-26T05:06:02.847Z,-1.60
2023-02-26T05:07:02.974Z,-1.60
2023-02-26T05:08:03.013Z,-1.60
2023-02-26T05:09:03.157Z,-1.60
2023-02-26T05:10:03.094Z,-1.60
2023-02-26T05:11:03.213Z,-1.60
2023-02-26T05:12:03.082Z,-1.60
2023-02-26T05:13:03.222Z,-1.60
2023-02-26T05:14:03.432Z,-1.60
2023-02-26T05:15:03.303Z,-1.60
2023-02-26T05:16:03.423Z,-1.60
2023-02-26T05:17:03.389Z,-1.60
2023-02-26T05:18:03.504Z,-1.60
2023-02-26T05:19:03.467Z,-1.60
2023-02-26T05:20:03.435Z,-1.60
2023-02-26T05:21:03.528Z,-1.60
2023-02-26T05:22:03.419Z,-1.60
2023-02-26T05:23:03.320Z,-1.60
2023-02-26T05:24:03.430Z,-1.50
2023-02-26T05:25:03.778Z,-1.50
2023-02-26T05:26:03.678Z,-1.60
2023-02-26T05:27:03.636Z,-1.50
2023-02-26T05:28:03.590Z,-1.60
2023-02-26T05:29:03.597Z,-1.60
2023-02-26T05:30:03.477Z,-1.60
2023-02-26T05:31:03.709Z,-1.60
2023-02-26T05:32:02.698Z,-1.60
2023-02-26T05:33:03.653Z,-1.60
2023-02-26T05:34:03.592Z,-1.60
2023-02-26T05:35:02.711Z,-1.60
2023-02-26T05:36:02.718Z,-1.60
2023-02-26T05:37:02.712Z,-1.60
2023-02-26T05:38:02.669Z,-1.60
2023-02-26T05:39:03.614Z,-1.60
2023-02-26T05:40:02.659Z,-1.60
2023-02-26T05:41:02.754Z,-1.60
2023-02-26T05:42:03.296Z,-1.60
2023-02-26T05:43:03.377Z,-1.60
2023-02-26T05:44:03.365Z,-1.60
2023-02-26T05:45:03.279Z,-1.60
2023-02-26T05:46:03.252Z,-1.60
2023-02-26T05:47:03.372Z,-1.60
2023-02-26T05:48:03.507Z,-1.60
2023-02-26T05:49:03.567Z,-1.60
2023-02-26T05:50:02.670Z,-1.60
2023-02-26T05:51:02.781Z,-1.60
2023-02-26T05:52:02.715Z,-1.60
2023-02-26T05:53:02.716Z,-1.70
2023-02-26T05:54:02.784Z,-1.70
2023-02-26T05:55:02.848Z,-1.70
2023-02-26T05:56:02.882Z,-1.60
2023-02-26T05:57:02.904Z,-1.70
2023-02-26T05:58:02.913Z,-1.60
2023-02-26T05:59:02.963Z,-1.60
2023-02-26T06:00:02.824Z,-1.70
2023-02-26T06:01:02.796Z,-1.70
2023-02-26T06:02:02.857Z,-1.70
2023-02-26T06:03:02.908Z,-1.60
2023-02-26T06:04:02.861Z,-1.70
2023-02-26T06:05:02.982Z,-1.70
2023-02-26T06:06:02.895Z,-1.70
2023-02-26T06:07:02.916Z,-1.60
2023-02-26T06:08:02.979Z,-1.70
2023-02-26T06:09:02.886Z,-1.60
2023-02-26T06:10:02.890Z,-1.60
2023-02-26T06:11:02.838Z,-1.60
2023-02-26T06:12:02.912Z,-1.60
2023-02-26T06:13:02.953Z,-1.60
2023-02-26T06:14:02.908Z,-1.60
2023-02-26T06:15:03.115Z,-1.60
2023-02-26T06:16:03.015Z,-1.60
2023-02-26T06:17:03.090Z,-1.60
2023-02-26T06:18:03.154Z,-1.60
2023-02-26T06:19:03.095Z,-1.60
2023-02-26T06:20:03.129Z,-1.60
2023-02-26T06:21:03.138Z,-1.60
2023-02-26T06:22:03.108Z,-1.60
2023-02-26T06:23:03.073Z,-1.60
2023-02-26T06:24:03.074Z,-1.60
2023-02-26T06:25:03.190Z,-1.60
2023-02-26T06:26:03.142Z,-1.60
2023-02-26T06:27:03.192Z,-1.60
2023-02-26T06:28:03.117Z,-1.60
2023-02-26T06:29:03.227Z,-1.60
2023-02-26T06:30:03.300Z,-1.60
2023-02-26T06:31:03.363Z,-1.60
2023-02-26T06:32:03.468Z,-1.60
2023-02-26T06:33:03.478Z,-1.60
2023-02-26T06:34:03.377Z,-1.60
2023-02-26T06:35:03.427Z,-1.60
2023-02-26T06:36:03.269Z,-1.50
2023-02-26T06:37:03.392Z,-1.60
2023-02-26T06:38:03.488Z,-1.50
2023-02-26T06:39:03.501Z,-1.50
2023-02-26T06:40:03.468Z,-1.60
2023-02-26T06:41:03.643Z,-1.50
2023-02-26T06:42:03.533Z,-1.50
2023-02-26T06:43:03.604Z,-1.50
2023-02-26T06:44:03.546Z,-1.50
2023-02-26T06:45:02.701Z,-1.50
2023-02-26T06:46:03.635Z,-1.50
2023-02-26T06:47:03.548Z,-1.50
2023-02-26T06:48:03.556Z,-1.50
2023-02-26T06:49:03.595Z,-1.50
2023-02-26T06:50:03.516Z,-1.50
2023-02-26T06:51:02.707Z,-1.50
2023-02-26T06:52:03.644Z,-1.50
2023-02-26T06:53:03.609Z,-1.50
2023-02-26T06:54:03.548Z,-1.50
2023-02-26T06:55:03.513Z,-1.40
2023-02-26T06:56:03.470Z,-1.50
2023-02-26T06:57:03.369Z,-1.40
2023-02-26T06:58:03.346Z,-1.40
2023-02-26T06:59:03.465Z,-1.50
2023-02-26T07:00:03.493Z,-1.50
2023-02-26T07:01:03.539Z,-1.40
2023-02-26T07:02:03.426Z,-1.50
2023-02-26T07:03:03.426Z,-1.40
2023-02-26T07:04:03.454Z,-1.40
2023-02-26T07:05:03.399Z,-1.40
2023-02-26T07:06:18.876Z,-1.40
2023-02-26T07:07:03.582Z,-1.40
2023-02-26T07:08:03.572Z,-1.40
2023-02-26T07:09:02.681Z,-1.40
2023-02-26T07:10:02.671Z,-1.40
2023-02-26T07:11:02.730Z,-1.40
2023-02-26T07:12:02.812Z,-1.40
2023-02-26T07:13:02.773Z,-1.40
2023-02-26T07:14:02.713Z,-1.40
2023-02-26T07:15:02.714Z,-1.30
2023-02-26T07:16:02.736Z,-1.30
2023-02-26T07:17:03.034Z,-1.40
2023-02-26T07:18:02.901Z,-1.40
2023-02-26T07:19:02.782Z,-1.30
2023-02-26T07:20:02.830Z,-1.30
2023-02-26T07:21:02.692Z,-1.30
2023-02-26T07:22:02.743Z,-1.30
2023-02-26T07:23:02.674Z,-1.30
2023-02-26T07:24:02.756Z,-1.30
2023-02-26T07:25:02.689Z,-1.30
2023-02-26T07:26:02.887Z,-1.30
2023-02-26T07:27:02.969Z,-1.30
2023-02-26T07:28:02.900Z,-1.30
2023-02-26T07:29:02.920Z,-1.30
2023-02-26T07:30:03.028Z,-1.20
2023-02-26T07:31:03.029Z,-1.20
2023-02-26T07:32:03.050Z,-1.20
2023-02-26T07:33:03.095Z,-1.20
2023-02-26T07:34:03.058Z,-1.20
2023-02-26T07:35:03.130Z,-1.20
2023-02-26T07:36:03.145Z,-1.20
2023-02-26T07:37:03.224Z,-1.10
2023-02-26T07:38:03.222Z,-1.10
2023-02-26T07:39:03.313Z,-1.10
2023-02-26T07:40:03.368Z,-1.10
2023-02-26T07:41:03.401Z,-1.10
2023-02-26T07:42:03.439Z,-1.00
2023-02-26T07:43:03.494Z,-1.00
2023-02-26T07:44:03.435Z,-1.00
2023-02-26T07:45:03.485Z,-1.00
2023-02-26T07:46:03.492Z,-1.00
2023-02-26T07:47:03.476Z,-1.00
2023-02-26T07:48:03.487Z,-1.00
2023-02-26T07:49:03.468Z,-1.00
2023-02-26T07:50:03.543Z,-0.90
2023-02-26T07:51:03.598Z,-0.90
2023-02-26T07:52:03.553Z,-0.90
2023-02-26T07:53:03.664Z,-0.90
2023-02-26T07:54:03.569Z,-0.90
2023-02-26T07:55:03.583Z,-0.90
2023-02-26T07:56:03.579Z,-0.80
2023-02-26T07:57:03.551Z,-0.80
2023-02-26T07:58:03.583Z,-0.80
2023-02-26T07:59:03.632Z,-0.90
2023-02-26T08:00:03.589Z,-0.80
2023-02-26T08:01:03.694Z,-0.80
2023-02-26T08:02:03.573Z,-0.80
2023-02-26T08:03:03.640Z,-0.90
2023-02-26T08:04:03.597Z,-0.90
2023-02-26T08:05:02.651Z,-0.90
2023-02-26T08:06:02.816Z,-0.90
2023-02-26T08:07:02.846Z,-0.90
2023-02-26T08:08:02.900Z,-0.90
2023-02-26T08:09:02.870Z,-0.90
2023-02-26T08:10:02.824Z,-0.90
2023-02-26T08:11:02.947Z,-0.90
2023-02-26T08:12:02.897Z,-0.90
2023-02-26T08:13:02.983Z,-0.90
2023-02-26T08:14:03.024Z,-0.90
2023-02-26T08:15:02.979Z,-0.90
2023-02-26T08:16:03.051Z,-0.90
2023-02-26T08:17:03.154Z,-0.90
2023-02-26T08:18:03.039Z,-0.90
2023-02-26T08:19:02.962Z,-0.90
2023-02-26T08:20:02.980Z,-0.90
2023-02-26T08:21:03.006Z,-0.90
2023-02-26T08:22:02.962Z,-0.90
2023-02-26T08:23:03.044Z,-0.90
2023-02-26T08:24:02.963Z,-0.90
2023-02-26T08:25:03.557Z,-1.00
2023-02-26T08:26:03.556Z,-1.00
2023-02-26T08:27:02.649Z,-0.90
2023-02-26T08:28:02.693Z,-0.90
2023-02-26T08:29:02.633Z,-0.90
2023-02-26T08:30:02.695Z,-0.90
2023-02-26T08:31:02.857Z,-0.90
2023-02-26T08:32:02.859Z,-0.90
2023-02-26T08:33:02.711Z,-0.90
2023-02-26T08:34:02.709Z,-0.80
2023-02-26T08:35:02.638Z,-0.80
2023-02-26T08:36:02.682Z,-0.80
2023-02-26T08:37:02.829Z,-0.80
2023-02-26T08:38:02.867Z,-0.80
2023-02-26T08:39:02.860Z,-0.80
2023-02-26T08:40:02.872Z,-0.80
2023-02-26T08:41:02.972Z,-0.80
2023-02-26T08:42:02.898Z,-0.80
2023-02-26T08:43:03.007Z,-0.70
2023-02-26T08:44:03.005Z,-0.70
2023-02-26T08:45:02.946Z,-0.70
2023-02-26T08:46:02.879Z,-0.70
2023-02-26T08:47:02.992Z,-0.70
2023-02-26T08:48:02.936Z,-0.70
2023-02-26T08:49:02.891Z,-0.70
2023-02-26T08:50:02.975Z,-0.60
2023-02-26T08:51:02.989Z,-0.60
2023-02-26T08:52:02.964Z,-0.60
2023-02-26T08:53:02.899Z,-0.60
2023-02-26T08:54:02.956Z,-0.50
2023-02-26T08:55:03.011Z,-0.50
2023-02-26T08:56:02.924Z,-0.50
2023-02-26T08:57:02.833Z,-0.50
2023-02-26T08:58:02.790Z,-0.50
2023-02-26T08:59:02.743Z,-0.40
2023-02-26T09:00:02.726Z,-0.40
2023-02-26T09:01:02.672Z,-0.30
2023-02-26T09:02:02.764Z,-0.30
2023-02-26T09:03:03.641Z,-0.30
2023-02-26T09:04:02.721Z,-0.20
2023-02-26T09:05:02.760Z,-0.20
2023-02-26T09:06:03.306Z,-0.20
2023-02-26T09:07:03.332Z,-0.10
2023-02-26T09:08:03.409Z,-0.10
2023-02-26T09:09:03.155Z,-0.10
2023-02-26T09:10:03.184Z,0.00
2023-02-26T09:11:03.260Z,0.00
2023-02-26T09:12:03.323Z,0.00
2023-02-26T09:13:03.359Z,0.10
2023-02-26T09:14:03.546Z,0.10
2023-02-26T09:15:03.374Z,0.10
2023-02-26T09:16:03.451Z,0.10
2023-02-26T09:17:03.517Z,0.10
2023-02-26T09:18:03.564Z,0.10
2023-02-26T09:19:02.741Z,0.10
2023-02-26T09:20:02.695Z,0.10
2023-02-26T09:21:02.682Z,0.10
2023-02-26T09:22:03.848Z,0.10
2023-02-26T09:23:02.701Z,0.10
2023-02-26T09:24:02.800Z,0.00
2023-02-26T09:25:02.864Z,0.00
2023-02-26T09:26:02.832Z,0.00
2023-02-26T09:27:02.893Z,0.00
2023-02-26T09:28:02.952Z,0.00
2023-02-26T09:29:02.889Z,0.00
2023-02-26T09:30:02.950Z,0.00
2023-02-26T09:31:03.083Z,0.00
2023-02-26T09:32:03.193Z,0.00
2023-02-26T09:33:03.004Z,0.00
2023-02-26T09:34:02.996Z,0.00
2023-02-26T09:35:02.980Z,0.00
2023-02-26T09:36:02.970Z,0.00
2023-02-26T09:37:03.088Z,0.00
2023-02-26T09:38:02.960Z,0.00
2023-02-26T09:39:03.090Z,0.00
2023-02-26T09:40:03.206Z,0.00
2023-02-26T09:41:03.135Z,0.00
2023-02-26T09:42:03.072Z,0.00
2023-02-26T09:43:03.178Z,0.00
2023-02-26T09:44:03.171Z,0.10
2023-02-26T09:45:03.214Z,0.10
2023-02-26T09:46:03.361Z,0.10
2023-02-26T09:47:03.178Z,0.10
2023-02-26T09:48:03.185Z,0.10
2023-02-26T09:49:08.231Z,0.10
2023-02-26T09:50:03.124Z,0.20
2023-02-26T09:51:03.201Z,0.10
2023-02-26T09:52:03.181Z,0.10
2023-02-26T09:53:03.279Z,0.10
2023-02-26T09:54:03.285Z,0.10
2023-02-26T09:55:03.185Z,0.20
2023-02-26T09:56:03.181Z,0.20
2023-02-26T09:57:03.303Z,0.20
2023-02-26T09:58:03.181Z,0.20
2023-02-26T09:59:03.199Z,0.20
2023-02-26T10:00:03.137Z,0.20
2023-02-26T10:01:03.181Z,0.20
2023-02-26T10:02:03.295Z,0.20
2023-02-26T10:03:03.287Z,0.20
2023-02-26T10:04:03.336Z,0.20
2023-02-26T10:05:03.449Z,0.20
2023-02-26T10:06:03.349Z,0.20
2023-02-26T10:07:03.355Z,0.20
2023-02-26T10:08:03.439Z,0.20
2023-02-26T10:09:03.514Z,0.20
2023-02-26T10:10:03.431Z,0.20
2023-02-26T10:11:03.453Z,0.20
2023-02-26T10:12:03.409Z,0.20
2023-02-26T10:13:03.466Z,0.30
2023-02-26T10:14:03.466Z,0.30
2023-02-26T10:15:03.604Z,0.30
2023-02-26T10:16:03.538Z,0.30
2023-02-26T10:17:03.696Z,0.30
2023-02-26T10:18:03.553Z,0.40
2023-02-26T10:19:02.693Z,0.40
2023-02-26T10:20:02.693Z,0.40
2023-02-26T10:21:02.700Z,0.40
2023-02-26T10:22:02.789Z,0.40
2023-02-26T10:23:02.739Z,0.40
2023-02-26T10:24:03.643Z,0.50
2023-02-26T10:25:03.498Z,0.50
2023-02-26T10:26:03.630Z,0.50
2023-02-26T10:27:03.563Z,0.50
2023-02-26T10:28:03.557Z,0.40
2023-02-26T10:29:03.655Z,0.40
2023-02-26T10:30:03.606Z,0.40
2023-02-26T10:31:02.698Z,0.40
2023-02-26T10:32:02.918Z,0.40
2023-02-26T10:33:02.825Z,0.40
2023-02-26T10:34:02.969Z,0.40
2023-02-26T10:35:02.880Z,0.40
2023-02-26T10:36:03.015Z,0.40
2023-02-26T10:37:02.895Z,0.50
2023-02-26T10:38:02.894Z,0.50
2023-02-26T10:39:02.872Z,0.50
2023-02-26T10:40:03.392Z,0.50
2023-02-26T10:41:03.441Z,0.50
2023-02-26T10:42:03.515Z,0.50
2023-02-26T10:43:03.400Z,0.50
2023-02-26T10:44:03.389Z,0.50
2023-02-26T10:45:03.435Z,0.50
2023-02-26T10:46:03.544Z,0.50
2023-02-26T10:47:03.613Z,0.50
2023-02-26T10:48:02.663Z,0.50
2023-02-26T10:49:02.724Z,0.50
2023-02-26T10:50:02.692Z,0.50
2023-02-26T10:51:03.623Z,0.50
2023-02-26T10:52:03.660Z,0.50
2023-02-26T10:53:03.607Z,0.50
2023-02-26T10:54:03.640Z,0.50
2023-02-26T10:55:03.552Z,0.50
2023-02-26T10:56:03.641Z,0.50
2023-02-26T10:57:03.557Z,0.50
2023-02-26T10:58:03.573Z,0.60
2023-02-26T10:59:02.734Z,0.60
2023-02-26T11:00:02.766Z,0.60
2023-02-26T11:01:02.834Z,0.60
2023-02-26T11:02:02.993Z,0.60
2023-02-26T11:03:02.926Z,0.60
2023-02-26T11:04:02.888Z,0.60
2023-02-26T11:05:07.710Z,0.60
2023-02-26T11:06:02.924Z,0.60
2023-02-26T11:07:02.954Z,0.70
2023-02-26T11:08:03.024Z,0.70
2023-02-26T11:09:03.065Z,0.70
2023-02-26T11:10:03.123Z,0.70
2023-02-26T11:11:03.117Z,0.70
2023-02-26T11:12:03.119Z,0.70
2023-02-26T11:13:03.050Z,0.80
2023-02-26T11:14:03.074Z,0.80
2023-02-26T11:15:02.981Z,0.80
2023-02-26T11:16:03.086Z,0.80
2023-02-26T11:17:03.116Z,0.80
2023-02-26T11:18:03.114Z,0.90
2023-02-26T11:19:03.236Z,0.90
2023-02-26T11:20:03.291Z,0.90
2023-02-26T11:21:03.209Z,0.90
2023-02-26T11:22:03.310Z,0.90
2023-02-26T11:23:03.351Z,1.00
2023-02-26T11:24:03.369Z,1.00
2023-02-26T11:25:03.337Z,1.00
2023-02-26T11:26:03.346Z,1.00
2023-02-26T11:27:03.460Z,1.00
2023-02-26T11:28:03.381Z,1.00
2023-02-26T11:29:03.522Z,1.10
2023-02-26T11:30:03.492Z,1.10
2023-02-26T11:31:03.538Z,1.10
2023-02-26T11:32:03.621Z,1.10
2023-02-26T11:33:03.466Z,1.10
2023-02-26T11:34:03.575Z,1.20
2023-02-26T11:35:02.610Z,1.20
2023-02-26T11:36:02.677Z,1.20
2023-02-26T11:37:02.681Z,1.20
2023-02-26T11:38:02.751Z,1.20
2023-02-26T11:39:02.794Z,1.20
2023-02-26T11:40:02.664Z,1.30
2023-02-26T11:41:02.633Z,1.30
2023-02-26T11:42:02.807Z,1.30
2023-02-26T11:43:02.715Z,1.30
2023-02-26T11:44:02.895Z,1.30
2023-02-26T11:45:02.998Z,1.40
2023-02-26T11:46:03.159Z,1.40
2023-02-26T11:47:03.089Z,1.40
2023-02-26T11:48:03.518Z,1.40
2023-02-26T11:49:03.618Z,1.40
2023-02-26T11:50:03.578Z,1.40
2023-02-26T11:51:03.640Z,1.40
2023-02-26T11:52:03.553Z,1.40
2023-02-26T11:53:03.474Z,1.40
2023-02-26T11:54:03.536Z,1.50
2023-02-26T11:55:03.527Z,1.50
2023-02-26T11:56:03.619Z,1.60
2023-02-26T11:57:03.617Z,1.60
2023-02-26T11:58:03.616Z,1.60
2023-02-26T11:59:03.591Z,1.70
2023-02-26T12:00:03.510Z,1.70
2023-02-26T12:01:03.577Z,1.70
2023-02-26T12:02:02.655Z,1.70
2023-02-26T12:03:03.638Z,1.80
2023-02-26T12:04:03.726Z,1.80
2023-02-26T12:05:02.642Z,1.80
2023-02-26T12:06:02.692Z,1.80
2023-02-26T12:07:02.742Z,1.80
2023-02-26T12:08:02.724Z,1.90
2023-02-26T12:09:02.816Z,1.90
2023-02-26T12:10:02.896Z,1.90
2023-02-26T12:11:02.814Z,1.90
2023-02-26T12:12:02.780Z,1.90
2023-02-26T12:13:02.920Z,1.90
2023-02-26T12:14:02.858Z,1.90
2023-02-26T12:15:02.808Z,1.90
2023-02-26T12:16:02.806Z,1.90
2023-02-26T12:17:02.792Z,1.80
2023-02-26T12:18:02.887Z,1.80
2023-02-26T12:19:02.883Z,1.80
2023-02-26T12:20:02.871Z,1.80
2023-02-26T12:21:02.898Z,1.80
2023-02-26T12:22:02.777Z,1.80
2023-02-26T12:23:02.709Z,1.80
2023-02-26T12:24:02.736Z,1.80
2023-02-26T12:25:02.760Z,1.80
2023-02-26T12:26:02.720Z,1.70
2023-02-26T12:27:02.719Z,1.80
2023-02-26T12:28:02.646Z,1.70
2023-02-26T12:29:02.637Z,1.80
2023-02-26T12:30:03.558Z,1.80
2023-02-26T12:31:02.772Z,1.70
2023-02-26T12:32:03.787Z,1.70
2023-02-26T12:33:03.575Z,1.70
2023-02-26T12:34:02.680Z,1.70
2023-02-26T12:35:02.854Z,1.70
2023-02-26T12:36:02.832Z,1.70
2023-02-26T12:37:02.922Z,1.70
2023-02-26T12:38:02.939Z,1.70
2023-02-26T12:39:02.902Z,1.70
2023-02-26T12:40:02.886Z,1.70
2023-02-26T12:41:02.946Z,1.70
2023-02-26T12:42:02.985Z,1.70
2023-02-26T12:43:03.091Z,1.70
2023-02-26T12:44:03.165Z,1.70
2023-02-26T12:45:03.077Z,1.70
2023-02-26T12:46:03.107Z,1.70
2023-02-26T12:47:03.038Z,1.70
2023-02-26T12:48:03.091Z,1.70
2023-02-26T12:49:03.050Z,1.70
2023-02-26T12:50:03.189Z,1.60
2023-02-26T12:51:03.099Z,1.60
2023-02-26T12:52:03.075Z,1.60
2023-02-26T12:53:03.079Z,1.60
2023-02-26T12:54:03.107Z,1.60
2023-02-26T12:55:03.049Z,1.60
2023-02-26T12:56:03.070Z,1.70
2023-02-26T12:57:03.154Z,1.60
2023-02-26T12:58:03.130Z,1.60
2023-02-26T12:59:02.944Z,1.60
2023-02-26T13:00:02.941Z,1.60